Time;durP1;ratioP1;P1;durP2;ratioP2;P2;SDS_P1;SDS_P2;PMS_P1;PMS_P2;Temp;Humidity;BMP_temperature;BMP_pressure;BME280_temperature;BME280_humidity;BME280_pressure;Samples;Min_cycle;Max_cycle;Signal;HPM_P1;HPM_P2
2023/10/05 00:03:46;;;;;;;5.45;1.38;;;14.70;99.90;;;;;;4988069;28;20049;-72
2023/10/05 00:06:13;;;;;;;6.30;1.13;;;14.70;99.90;;;;;;4990935;28;20437;-72
2023/10/05 00:08:44;;;;;;;5.90;1.50;;;14.70;99.90;;;;;;4994187;28;20039;-73
2023/10/05 00:11:28;;;;;;;2.72;1.17;;;14.70;99.90;;;;;;4996631;28;20052;-73
2023/10/05 00:13:59;;;;;;;9.43;2.28;;;14.60;99.90;;;;;;4990014;28;20066;-72
2023/10/05 00:16:38;;;;;;;10.70;1.65;;;14.60;99.90;;;;;;4983233;28;20078;-72
2023/10/05 00:19:11;;;;;;;5.45;1.20;;;14.60;99.90;;;;;;4983702;28;20125;-72
2023/10/05 00:21:57;;;;;;;3.55;1.38;;;14.60;99.90;;;;;;4983431;28;20051;-72
2023/10/05 00:24:35;;;;;;;6.18;1.90;;;14.60;99.90;;;;;;4966553;28;20046;-72
2023/10/05 00:27:03;;;;;;;3.47;1.08;;;14.60;99.90;;;;;;4983981;28;20035;-72
2023/10/05 00:29:35;;;;;;;5.65;0.93;;;14.60;99.90;;;;;;5000576;28;20108;-71
2023/10/05 00:32:01;;;;;;;;;;;14.60;99.90;;;;;;4988572;28;20077;-72
2023/10/05 00:34:33;;;;;;;7.60;1.63;;;14.60;99.90;;;;;;4991600;28;19925;-71
2023/10/05 00:36:59;;;;;;;2.95;1.17;;;14.50;99.90;;;;;;5002331;28;20125;-73
2023/10/05 00:39:29;;;;;;;6.22;1.40;;;14.50;99.90;;;;;;5003317;28;20125;-72
2023/10/05 00:44:30;;;;;;;5.55;1.30;;;14.60;99.90;;;;;;5001278;28;20492;-73
2023/10/05 00:47:00;;;;;;;5.25;1.40;;;14.60;99.90;;;;;;4999582;28;20056;-74
2023/10/05 00:49:30;;;;;;;3.55;1.52;;;14.60;99.90;;;;;;4982688;28;20046;-73
2023/10/05 00:52:19;;;;;;;5.53;1.23;;;14.50;99.90;;;;;;4981635;28;20050;-73
2023/10/05 00:54:48;;;;;;;4.28;1.00;;;14.60;99.90;;;;;;4982619;28;20050;-72
2023/10/05 00:57:14;;;;;;;1.20;0.90;;;14.60;99.90;;;;;;4981857;28;20424;-72
2023/10/05 00:59:47;;;;;;;1.50;0.93;;;14.60;99.90;;;;;;4985031;28;20073;-73
2023/10/05 01:02:16;;;;;;;;;;;14.60;99.90;;;;;;4982636;28;20057;-73
2023/10/05 01:14:58;;;;;;;7.15;1.63;;;14.50;99.90;;;;;;4962965;28;20047;-73
2023/10/05 01:17:28;;;;;;;3.67;1.10;;;14.50;99.90;;;;;;4963428;28;20047;-73
2023/10/05 01:20:07;;;;;;;5.97;1.05;;;14.50;99.90;;;;;;4964256;28;20056;-73
2023/10/05 01:22:35;;;;;;;5.50;1.35;;;14.50;99.90;;;;;;4962057;28;20047;-73
2023/10/05 01:25:02;;;;;;;4.10;1.42;;;14.50;99.90;;;;;;4976784;28;20124;-73
2023/10/05 01:27:31;;;;;;;8.23;1.33;;;14.50;99.90;;;;;;4967138;28;20093;-73
2023/10/05 01:29:57;;;;;;;3.28;1.00;;;14.50;99.90;;;;;;4967242;28;20129;-72
2023/10/05 01:32:23;;;;;;;5.68;1.08;;;14.50;99.90;;;;;;4974106;28;20568;-73
2023/10/05 01:34:50;;;;;;;5.70;1.73;;;14.50;99.90;;;;;;4964211;28;20043;-72
2023/10/05 01:37:23;;;;;;;16.40;1.80;;;14.50;99.90;;;;;;4959915;28;20074;-73
2023/10/05 01:39:49;;;;;;;5.07;1.30;;;14.50;99.90;;;;;;4963746;28;20147;-73
2023/10/05 01:42:16;;;;;;;5.15;0.90;;;14.50;99.90;;;;;;4979460;28;20047;-72
2023/10/05 01:44:47;;;;;;;4.75;1.42;;;14.60;99.90;;;;;;4982013;28;20076;-73
2023/10/05 01:47:17;;;;;;;4.35;1.10;;;14.60;99.90;;;;;;4970353;28;20053;-73
2023/10/05 01:49:46;;;;;;;4.78;1.27;;;14.60;99.90;;;;;;4970707;28;20091;-73
2023/10/05 01:52:17;;;;;;;5.97;1.00;;;14.60;99.90;;;;;;4982477;28;20042;-73
2023/10/05 01:54:44;;;;;;;7.50;1.50;;;14.50;99.90;;;;;;4968920;28;20046;-73
2023/10/05 01:57:12;;;;;;;13.13;2.25;;;14.60;99.90;;;;;;4975167;28;20038;-73
2023/10/05 01:59:40;;;;;;;2.58;1.02;;;14.50;99.90;;;;;;4963135;28;20073;-73
2023/10/05 02:02:13;;;;;;;3.65;1.48;;;14.50;99.90;;;;;;4965342;28;20130;-73
2023/10/05 02:04:48;;;;;;;2.58;1.42;;;14.50;99.90;;;;;;4970109;28;20125;-74
2023/10/05 02:07:18;;;;;;;8.88;1.85;;;14.50;99.90;;;;;;4973277;28;20051;-72
2023/10/05 02:09:44;;;;;;;8.95;1.58;;;14.50;99.90;;;;;;4967859;28;20126;-73
2023/10/05 02:12:10;;;;;;;5.22;1.17;;;14.50;99.90;;;;;;4966005;28;20118;-73
2023/10/05 02:14:41;;;;;;;4.63;1.50;;;14.50;99.90;;;;;;4967035;28;20062;-74
2023/10/05 02:17:09;;;;;;;5.67;2.53;;;14.50;99.90;;;;;;4975102;28;20096;-72
2023/10/05 02:19:36;;;;;;;11.20;1.85;;;14.50;99.90;;;;;;4986769;28;20318;-73
2023/10/05 02:22:10;;;;;;;3.58;1.42;;;14.50;99.90;;;;;;4968723;28;20054;-72
2023/10/05 02:24:36;;;;;;;11.00;1.83;;;14.50;99.90;;;;;;4964078;28;20056;-72
2023/10/05 02:29:29;;;;;;;5.82;1.20;;;14.50;99.90;;;;;;4986095;28;20093;-73
2023/10/05 02:34:48;;;;;;;6.95;1.90;;;14.50;99.90;;;;;;4982207;28;20145;-73
2023/10/05 02:37:19;;;;;;;5.57;2.63;;;14.50;99.90;;;;;;4967045;28;20047;-73
2023/10/05 02:39:45;;;;;;;8.80;2.10;;;14.50;99.90;;;;;;4965725;28;20046;-73
2023/10/05 02:42:12;;;;;;;7.20;1.60;;;14.50;99.90;;;;;;4965327;28;20053;-73
2023/10/05 02:44:38;;;;;;;2.33;1.65;;;14.50;99.90;;;;;;4966296;28;20529;-73
2023/10/05 02:47:13;;;;;;;9.13;2.08;;;14.40;99.90;;;;;;4967477;28;20080;-72
2023/10/05 02:49:43;;;;;;;6.25;1.67;;;14.40;99.90;;;;;;4980809;28;20049;-75
2023/10/05 02:52:13;;;;;;;3.65;1.30;;;14.40;99.90;;;;;;4985761;28;20481;-74
2023/10/05 02:54:40;;;;;;;9.30;2.33;;;14.40;99.90;;;;;;4984778;28;20133;-75
2023/10/05 02:57:19;;;;;;;4.03;1.35;;;14.40;99.90;;;;;;4985807;28;20101;-73
2023/10/05 02:59:46;;;;;;;3.40;1.88;;;14.40;99.90;;;;;;4979484;28;20042;-73
2023/10/05 03:02:16;;;;;;;5.20;1.00;;;14.40;99.90;;;;;;4976339;28;20291;-73
2023/10/05 03:04:46;;;;;;;7.03;1.30;;;14.40;99.90;;;;;;4982815;28;20079;-73
2023/10/05 03:07:17;;;;;;;4.47;1.50;;;14.40;99.90;;;;;;4975003;28;20153;-72
2023/10/05 03:09:43;;;;;;;6.22;1.60;;;14.40;99.90;;;;;;4984263;28;20122;-73
2023/10/05 03:12:12;;;;;;;9.98;3.17;;;14.40;99.90;;;;;;4986023;28;20512;-73
2023/10/05 03:14:38;;;;;;;3.40;1.70;;;14.40;99.90;;;;;;4983012;28;20038;-73
2023/10/05 03:17:12;;;;;;;4.63;1.17;;;14.40;99.90;;;;;;4985883;28;20050;-73
2023/10/05 03:19:39;;;;;;;5.97;1.80;;;14.40;99.90;;;;;;4984181;28;20250;-73
2023/10/05 03:22:12;;;;;;;6.63;2.10;;;14.40;99.90;;;;;;4983749;28;20050;-72
2023/10/05 03:24:38;;;;;;;6.70;2.45;;;14.40;99.90;;;;;;4979084;28;20258;-72
2023/10/05 03:27:05;;;;;;;2.95;1.40;;;14.30;99.90;;;;;;4972719;28;20054;-74
2023/10/05 03:29:35;;;;;;;2.97;1.65;;;14.30;99.90;;;;;;4976967;28;20051;-74
2023/10/05 03:34:34;;;;;;;5.60;1.33;;;14.30;99.90;;;;;;4983338;28;20070;-73
2023/10/05 03:37:13;;;;;;;5.13;1.38;;;14.30;99.90;;;;;;4979239;28;20043;-72
2023/10/05 03:42:35;;;;;;;4.05;1.77;;;14.30;99.90;;;;;;4962178;28;20050;-73
2023/10/05 03:45:03;;;;;;;6.07;1.80;;;14.30;99.90;;;;;;4982990;28;20057;-73
2023/10/05 03:47:39;;;;;;;7.45;1.65;;;14.30;99.90;;;;;;4967991;28;20287;-73
2023/10/05 03:50:06;;;;;;;8.35;1.90;;;14.40;99.90;;;;;;4967669;28;20038;-73
2023/10/05 03:52:34;;;;;;;4.00;1.38;;;14.40;99.90;;;;;;4984551;28;20046;-73
2023/10/05 03:55:01;;;;;;;6.60;2.03;;;14.40;99.90;;;;;;4984082;28;20046;-72
2023/10/05 03:57:31;;;;;;;8.05;1.67;;;14.40;99.90;;;;;;4984503;28;20050;-72
2023/10/05 04:00:15;;;;;;;7.43;1.00;;;14.40;99.90;;;;;;4982900;28;20043;-73
2023/10/05 04:02:41;;;;;;;6.30;1.85;;;14.40;99.90;;;;;;4983470;28;20062;-72
2023/10/05 04:05:09;;;;;;;4.15;1.58;;;14.40;99.90;;;;;;4972755;28;20042;-72
2023/10/05 04:07:35;;;;;;;31.63;3.53;;;14.40;99.90;;;;;;4996645;28;20054;-73
2023/10/05 04:10:02;;;;;;;3.13;1.42;;;14.50;99.90;;;;;;4966240;28;20039;-73
2023/10/05 04:12:32;;;;;;;6.55;1.63;;;14.50;99.90;;;;;;4970897;28;20130;-73
2023/10/05 04:15:01;;;;;;;6.68;1.20;;;14.50;99.90;;;;;;4955669;28;20043;-72
2023/10/05 04:17:27;;;;;;;6.80;1.45;;;14.50;99.90;;;;;;4968599;28;20128;-71
2023/10/05 04:19:53;;;;;;;4.38;1.20;;;14.50;99.90;;;;;;4965947;28;20126;-74
2023/10/05 04:22:19;;;;;;;6.25;1.73;;;14.50;99.90;;;;;;4977517;28;20390;-71
2023/10/05 04:24:45;;;;;;;3.08;1.27;;;14.50;99.90;;;;;;4970939;28;20050;-72
2023/10/05 04:27:12;;;;;;;8.32;1.50;;;14.50;99.90;;;;;;4965718;28;20085;-71
2023/10/05 04:29:38;;;;;;;6.38;1.70;;;14.50;99.90;;;;;;4983598;28;20129;-72
2023/10/05 04:32:06;;;;;;;8.98;1.70;;;14.40;99.90;;;;;;4984616;28;20085;-72
2023/10/05 04:34:32;;;;;;;7.25;1.38;;;14.40;99.90;;;;;;4982736;28;20125;-71
2023/10/05 04:36:58;;;;;;;11.70;1.92;;;14.50;99.90;;;;;;4982452;28;20050;-72
2023/10/05 04:39:32;;;;;;;3.92;1.52;;;14.50;99.90;;;;;;4999143;28;20045;-72
2023/10/05 04:42:06;;;;;;;6.47;2.15;;;14.50;99.90;;;;;;4978346;28;20050;-73
2023/10/05 04:44:34;;;;;;;11.18;1.92;;;14.50;99.90;;;;;;4965390;28;20061;-74
2023/10/05 04:46:59;;;;;;;4.00;1.55;;;14.50;99.90;;;;;;4981925;28;20089;-74
2023/10/05 04:49:27;;;;;;;8.55;2.13;;;14.50;99.90;;;;;;4954146;28;20074;-73
2023/10/05 04:51:56;;;;;;;8.40;1.52;;;14.50;99.90;;;;;;4978829;28;20050;-74
2023/10/05 04:54:25;;;;;;;3.63;1.70;;;14.50;99.90;;;;;;4980319;28;20050;-73
2023/10/05 04:57:02;;;;;;;7.72;1.70;;;14.40;99.90;;;;;;4972348;28;20055;-74
2023/10/05 04:59:47;;;;;;;8.60;1.92;;;14.50;99.90;;;;;;4973509;28;20755;-77
2023/10/05 05:02:26;;;;;;;9.52;1.77;;;14.40;99.90;;;;;;4973424;28;20042;-73
2023/10/05 05:07:19;;;;;;;7.95;2.22;;;14.50;99.90;;;;;;4978754;28;20200;-73
2023/10/05 05:09:47;;;;;;;4.75;1.60;;;14.40;99.90;;;;;;4968357;28;20042;-72
2023/10/05 05:12:17;;;;;;;9.65;2.78;;;14.40;99.90;;;;;;4976141;28;20068;-72
2023/10/05 05:14:52;;;;;;;12.00;1.92;;;14.40;99.90;;;;;;4969650;28;20065;-72
2023/10/05 05:17:19;;;;;;;4.50;1.60;;;14.40;99.90;;;;;;4974525;28;20320;-71
2023/10/05 05:19:46;;;;;;;9.98;2.42;;;14.40;99.90;;;;;;4962990;28;20061;-71
2023/10/05 05:22:13;;;;;;;3.28;1.48;;;14.40;99.90;;;;;;4962933;28;20540;-72
2023/10/05 05:24:39;;;;;;;9.50;1.85;;;14.40;99.90;;;;;;4966239;28;20049;-73
2023/10/05 05:27:38;;;;;;;5.63;2.53;;;14.50;99.90;;;;;;4971294;28;20493;-71
2023/10/05 05:29:58;;;;;;;4.97;2.28;;;14.40;99.90;;;;;;4968667;28;20065;-71
2023/10/05 05:32:23;;;;;;;6.60;1.98;;;14.40;99.90;;;;;;4972630;28;20113;-71
2023/10/05 05:34:52;;;;;;;3.53;1.60;;;14.40;99.90;;;;;;4967900;28;20125;-71
2023/10/05 05:37:28;;;;;;;8.18;2.35;;;14.50;99.90;;;;;;4970098;28;20062;-72
2023/10/05 05:39:54;;;;;;;4.35;1.83;;;14.40;99.90;;;;;;4992881;28;20050;-72
2023/10/05 05:42:20;;;;;;;11.55;2.40;;;14.50;99.90;;;;;;4972484;28;20046;-72
2023/10/05 05:44:46;;;;;;;7.53;1.65;;;14.50;99.90;;;;;;4969661;28;20046;-72
2023/10/05 05:47:14;;;;;;;5.22;1.20;;;14.50;99.90;;;;;;4968222;28;20549;-72
2023/10/05 05:49:46;;;;;;;5.22;2.05;;;14.50;99.90;;;;;;4985743;28;20408;-73
2023/10/05 05:52:13;;;;;;;9.27;2.03;;;14.50;99.90;;;;;;4972483;28;20055;-73
2023/10/05 05:54:41;;;;;;;7.78;1.73;;;14.50;99.90;;;;;;4982297;28;20038;-74
2023/10/05 05:57:07;;;;;;;2.45;1.58;;;14.50;99.90;;;;;;4975744;28;20477;-72
2023/10/05 05:59:38;;;;;;;4.00;1.88;;;14.50;99.90;;;;;;4950585;28;20133;-72
2023/10/05 06:02:07;;;;;;;6.80;2.42;;;14.50;99.90;;;;;;4967989;28;20046;-72
2023/10/05 06:04:33;;;;;;;6.00;2.90;;;14.50;99.90;;;;;;4967619;28;20043;-72
2023/10/05 06:06:59;;;;;;;7.05;2.08;;;14.50;99.90;;;;;;4968906;28;20417;-72
2023/10/05 06:09:27;;;;;;;4.78;1.75;;;14.50;99.90;;;;;;4967605;28;20050;-72
2023/10/05 06:11:53;;;;;;;10.25;1.90;;;14.60;99.90;;;;;;4956188;28;20148;-73
2023/10/05 06:14:19;;;;;;;8.90;2.45;;;14.60;99.90;;;;;;4987886;28;20072;-74
2023/10/05 06:16:45;;;;;;;8.13;2.05;;;14.60;99.90;;;;;;4987449;28;20085;-73
2023/10/05 06:19:11;;;;;;;13.88;3.17;;;14.60;99.90;;;;;;4974432;28;20573;-73
2023/10/05 06:21:37;;;;;;;5.93;1.80;;;14.60;99.90;;;;;;5002713;28;20050;-73
2023/10/05 06:24:03;;;;;;;7.40;1.45;;;14.60;99.90;;;;;;4993565;28;20446;-73
2023/10/05 06:26:30;;;;;;;11.45;2.15;;;14.60;99.90;;;;;;4957542;28;20482;-72
2023/10/05 06:28:56;;;;;;;6.55;1.42;;;14.70;99.90;;;;;;4966484;28;20058;-73
2023/10/05 06:31:22;;;;;;;6.07;1.10;;;14.70;99.90;;;;;;4977058;28;20034;-73
2023/10/05 06:33:48;;;;;;;1.75;1.20;;;14.70;99.90;;;;;;4968588;28;20043;-71
2023/10/05 06:36:14;;;;;;;7.53;1.50;;;14.70;99.90;;;;;;4974883;28;20046;-72
2023/10/05 06:38:40;;;;;;;3.65;1.40;;;14.70;99.90;;;;;;4987317;28;20504;-74
2023/10/05 06:41:05;;;;;;;4.72;2.25;;;14.70;99.90;;;;;;4979886;28;20043;-73
2023/10/05 06:43:38;;;;;;;7.43;2.10;;;14.70;99.90;;;;;;4967073;28;20050;-72
2023/10/05 06:46:17;;;;;;;6.47;1.63;;;14.70;99.90;;;;;;4973153;28;20552;-73
2023/10/05 06:48:46;;;;;;;2.92;1.30;;;14.70;99.90;;;;;;4974330;28;20564;-73
2023/10/05 06:51:14;;;;;;;6.55;1.88;;;14.70;99.90;;;;;;4963838;28;20464;-74
2023/10/05 06:53:40;;;;;;;4.90;1.55;;;14.70;99.90;;;;;;4970443;28;20042;-73
2023/10/05 06:56:06;;;;;;;5.68;1.67;;;14.70;99.90;;;;;;4985720;28;20053;-73
2023/10/05 06:58:31;;;;;;;6.93;2.83;;;14.70;99.90;;;;;;4981581;28;20382;-73
2023/10/05 07:00:57;;;;;;;6.20;1.23;;;14.70;99.90;;;;;;4963748;28;20074;-73
2023/10/05 07:03:22;;;;;;;4.13;1.05;;;14.70;99.90;;;;;;4965361;28;20235;-72
2023/10/05 07:05:48;;;;;;;7.00;1.77;;;14.70;99.90;;;;;;4946092;28;20051;-73
2023/10/05 07:08:14;;;;;;;6.50;1.67;;;14.70;99.90;;;;;;4982014;28;20042;-73
2023/10/05 07:10:41;;;;;;;8.05;1.65;;;14.60;99.90;;;;;;4983939;28;20211;-74
2023/10/05 07:13:09;;;;;;;5.22;1.98;;;14.60;99.90;;;;;;4984229;28;20125;-73
2023/10/05 07:15:35;;;;;;;8.35;2.53;;;14.70;99.90;;;;;;4982623;28;20039;-73
2023/10/05 07:18:01;;;;;;;7.13;2.10;;;14.60;99.90;;;;;;4983381;28;20039;-73
2023/10/05 07:20:27;;;;;;;5.90;1.88;;;14.60;99.90;;;;;;4982400;28;20046;-73
2023/10/05 07:22:53;;;;;;;3.45;1.63;;;14.60;99.90;;;;;;4983880;28;20424;-73
2023/10/05 07:25:18;;;;;;;7.30;2.75;;;14.70;99.90;;;;;;4982776;28;20050;-73
2023/10/05 07:27:44;;;;;;;4.15;1.38;;;14.70;99.90;;;;;;4984224;28;20257;-74
2023/10/05 07:30:10;;;;;;;9.13;1.92;;;14.70;99.90;;;;;;4982776;28;20173;-74
2023/10/05 07:32:37;;;;;;;9.88;2.42;;;14.70;99.90;;;;;;4984520;28;20294;-73
2023/10/05 07:35:05;;;;;;;4.82;1.58;;;14.70;99.90;;;;;;4966301;28;20108;-73
2023/10/05 07:37:31;;;;;;;4.00;2.92;;;14.60;99.90;;;;;;4982777;28;20393;-73
2023/10/05 07:39:58;;;;;;;4.03;1.52;;;14.70;99.90;;;;;;4983789;28;20046;-73
2023/10/05 07:42:26;;;;;;;6.35;2.13;;;14.70;99.90;;;;;;4965621;28;20049;-73
2023/10/05 07:44:51;;;;;;;4.68;2.17;;;14.70;99.90;;;;;;4983042;28;20049;-73
2023/10/05 07:47:17;;;;;;;7.93;2.35;;;14.70;99.90;;;;;;4982292;28;20050;-73
2023/10/05 07:49:43;;;;;;;8.50;1.63;;;14.70;99.90;;;;;;4983656;28;20689;-74
2023/10/05 07:52:12;;;;;;;8.75;2.60;;;14.70;99.90;;;;;;4983784;28;20104;-75
2023/10/05 07:54:38;;;;;;;7.22;1.60;;;14.70;99.90;;;;;;4982712;28;20049;-73
2023/10/05 07:57:09;;;;;;;5.88;1.65;;;14.70;99.90;;;;;;4982175;28;20481;-73
2023/10/05 07:59:43;;;;;;;4.85;1.63;;;14.70;99.90;;;;;;4981199;28;20109;-73
2023/10/05 08:02:13;;;;;;;6.93;1.42;;;14.70;99.90;;;;;;4982265;28;20046;-75
2023/10/05 08:04:39;;;;;;;2.75;1.40;;;14.80;99.90;;;;;;4983507;28;20342;-74
2023/10/05 08:07:05;;;;;;;3.78;1.45;;;14.70;99.90;;;;;;4976459;28;20050;-73
2023/10/05 08:09:30;;;;;;;5.10;1.65;;;14.80;99.90;;;;;;4945871;28;20051;-73
2023/10/05 08:11:57;;;;;;;2.15;1.50;;;14.80;99.90;;;;;;4962694;28;20065;-73
2023/10/05 08:14:26;;;;;;;5.68;1.88;;;14.80;99.90;;;;;;4963058;28;20043;-73
2023/10/05 08:16:52;;;;;;;8.50;1.95;;;14.90;99.90;;;;;;4963443;28;20057;-73
2023/10/05 08:19:19;;;;;;;6.30;1.70;;;14.90;99.90;;;;;;4962151;28;20043;-73
2023/10/05 08:21:45;;;;;;;11.60;2.30;;;14.90;99.90;;;;;;4964009;28;20087;-73
2023/10/05 08:24:14;;;;;;;4.38;2.15;;;15.00;99.90;;;;;;4961752;28;20351;-74
2023/10/05 08:26:41;;;;;;;5.68;1.52;;;14.90;99.90;;;;;;4963829;28;20051;-74
2023/10/05 08:29:07;;;;;;;7.97;1.65;;;15.00;99.90;;;;;;4962147;28;20457;-73
2023/10/05 08:31:33;;;;;;;6.18;2.22;;;14.90;99.90;;;;;;4945383;28;20046;-73
2023/10/05 08:34:00;;;;;;;7.50;2.05;;;14.90;99.90;;;;;;4962474;28;20058;-73
2023/10/05 08:36:26;;;;;;;8.82;1.92;;;15.00;99.90;;;;;;4963235;28;20043;-73
2023/10/05 08:38:56;;;;;;;6.53;1.73;;;15.00;99.90;;;;;;4962890;28;20043;-73
2023/10/05 08:41:39;;;;;;;3.97;1.92;;;15.00;99.90;;;;;;4963275;28;20089;-73
2023/10/05 08:44:26;;;;;;;6.75;1.90;;;15.00;99.90;;;;;;4961570;28;20053;-73
2023/10/05 08:46:55;;;;;;;10.32;1.80;;;15.00;99.90;;;;;;4962280;28;20415;-73
2023/10/05 08:49:24;;;;;;;5.03;1.38;;;15.00;99.90;;;;;;4961496;28;20208;-73
2023/10/05 08:51:51;;;;;;;10.18;1.63;;;15.10;99.90;;;;;;4961746;28;20101;-73
2023/10/05 08:54:21;;;;;;;16.90;2.58;;;15.10;99.90;;;;;;4963648;28;20046;-73
2023/10/05 08:56:48;;;;;;;6.70;2.08;;;15.10;99.90;;;;;;4961622;28;20134;-73
2023/10/05 08:59:14;;;;;;;2.70;2.10;;;15.20;99.90;;;;;;4961132;28;20386;-73
2023/10/05 09:01:45;;;;;;;6.10;1.67;;;15.20;99.90;;;;;;4961973;28;20388;-74
2023/10/05 09:06:57;;;;;;;9.20;2.72;;;15.30;99.90;;;;;;4981147;28;20062;-74
2023/10/05 09:09:53;;;;;;;5.50;1.42;;;15.40;99.90;;;;;;4982075;28;20050;-73
2023/10/05 09:12:41;;;;;;;5.90;2.10;;;15.40;99.90;;;;;;4963347;28;20050;-73
2023/10/05 09:15:14;;;;;;;8.50;2.00;;;15.40;99.90;;;;;;4980559;28;20045;-73
2023/10/05 09:17:58;;;;;;;2.92;1.60;;;15.40;99.90;;;;;;4980838;28;20061;-74
2023/10/05 09:20:31;;;;;;;5.05;2.85;;;15.40;99.90;;;;;;4980964;28;20073;-73
2023/10/05 09:23:00;;;;;;;6.28;1.80;;;15.30;99.90;;;;;;4980722;28;20140;-73
2023/10/05 09:25:32;;;;;;;11.70;3.70;;;15.30;99.90;;;;;;4980411;28;20227;-75
2023/10/05 09:28:07;;;;;;;10.77;2.63;;;15.30;99.90;;;;;;4980517;28;20057;-73
2023/10/05 09:30:34;;;;;;;5.43;2.85;;;15.30;99.90;;;;;;4981743;28;20108;-73
2023/10/05 09:33:06;;;;;;;6.55;2.10;;;15.30;99.90;;;;;;4980618;28;20137;-73
2023/10/05 09:35:33;;;;;;;8.93;2.20;;;15.30;99.90;;;;;;4981721;28;20042;-73
2023/10/05 09:37:58;;;;;;;6.90;1.75;;;15.30;99.90;;;;;;4981977;28;20042;-73
2023/10/05 09:40:26;;;;;;;4.88;1.65;;;15.30;99.90;;;;;;4981930;28;20449;-73
2023/10/05 09:42:55;;;;;;;6.78;2.50;;;15.20;99.90;;;;;;4981892;28;20319;-73
2023/10/05 09:45:23;;;;;;;12.77;3.03;;;15.20;99.90;;;;;;4979831;28;20452;-72
2023/10/05 09:47:51;;;;;;;5.03;2.20;;;15.10;99.90;;;;;;4981674;28;20053;-73
2023/10/05 09:50:21;;;;;;;6.97;1.60;;;15.10;99.90;;;;;;4981650;28;20345;-73
2023/10/05 09:52:48;;;;;;;8.50;2.08;;;15.10;99.90;;;;;;4980508;28;20050;-73
2023/10/05 09:55:18;;;;;;;5.45;2.55;;;15.00;99.90;;;;;;4980042;28;20416;-73
2023/10/05 09:57:52;;;;;;;6.32;2.50;;;15.00;99.90;;;;;;4980245;28;20125;-73
2023/10/05 10:00:47;;;;;;;8.55;2.40;;;15.00;99.90;;;;;;4979766;28;20046;-73
2023/10/05 10:03:15;;;;;;;6.10;2.22;;;15.00;99.90;;;;;;4976335;28;20041;-76
2023/10/05 10:06:06;;;;;;;7.43;2.28;;;15.00;99.90;;;;;;4965158;28;20050;-73
2023/10/05 10:08:34;;;;;;;4.22;2.10;;;15.00;99.90;;;;;;4965633;28;20051;-73
2023/10/05 10:11:06;;;;;;;7.85;2.10;;;15.10;99.90;;;;;;4961187;28;20239;-73
2023/10/05 10:13:37;;;;;;;11.05;2.88;;;15.10;99.90;;;;;;4959150;28;20441;-74
2023/10/05 10:16:21;;;;;;;8.35;3.53;;;15.20;99.90;;;;;;4945325;28;20497;-74
2023/10/05 10:18:47;;;;;;;11.88;2.08;;;15.20;99.90;;;;;;4960873;28;20059;-74
2023/10/05 10:21:24;;;;;;;10.15;2.58;;;15.30;99.90;;;;;;4961583;28;20255;-74
2023/10/05 10:24:24;;;;;;;5.75;2.10;;;15.30;99.90;;;;;;4964175;28;20050;-74
2023/10/05 10:27:07;;;;;;;10.07;2.08;;;15.30;99.90;;;;;;4984216;28;20366;-75
2023/10/05 10:29:53;;;;;;;5.05;2.10;;;15.30;99.90;;;;;;4978954;28;20137;-77
2023/10/05 10:32:22;;;;;;;12.10;2.42;;;15.40;99.90;;;;;;4973508;28;20046;-77
2023/10/05 10:34:56;;;;;;;8.50;2.55;;;15.40;99.90;;;;;;4979473;28;20046;-77
2023/10/05 10:37:44;;;;;;;13.30;2.45;;;15.40;99.90;;;;;;4983824;28;20053;-77
2023/10/05 10:42:50;;;;;;;9.02;3.28;;;15.50;99.90;;;;;;4980873;28;20046;-77
2023/10/05 10:45:23;;;;;;;9.77;2.83;;;15.60;99.90;;;;;;4982317;28;20073;-77
2023/10/05 10:47:50;;;;;;;6.22;1.80;;;15.70;99.90;;;;;;4953698;28;20057;-77
2023/10/05 10:50:21;;;;;;;6.68;2.13;;;15.80;99.90;;;;;;4964173;28;20117;-77
2023/10/05 10:52:49;;;;;;;3.95;1.75;;;15.80;99.90;;;;;;4951247;28;20066;-78
2023/10/05 10:55:16;;;;;;;4.65;1.58;;;15.80;99.90;;;;;;4970216;28;20085;-82
2023/10/05 10:57:53;;;;;;;3.58;1.88;;;15.80;99.90;;;;;;4970997;28;20443;-77
2023/10/05 11:00:54;;;;;;;7.10;2.42;;;15.80;99.90;;;;;;4952214;28;20074;-77
2023/10/05 11:03:24;;;;;;;6.53;1.70;;;15.80;99.90;;;;;;4969527;28;20074;-76
2023/10/05 11:05:57;;;;;;;8.43;2.38;;;15.80;99.90;;;;;;4965117;28;20050;-77
2023/10/05 11:08:24;;;;;;;4.50;1.42;;;15.90;99.90;;;;;;4983603;28;20121;-77
2023/10/05 11:11:06;;;;;;;7.25;2.90;;;16.00;99.90;;;;;;4982794;28;20037;-77
2023/10/05 11:13:33;;;;;;;8.35;2.42;;;16.10;99.90;;;;;;4968448;28;20047;-77
2023/10/05 11:15:59;;;;;;;5.50;1.67;;;16.10;99.90;;;;;;4965696;28;20098;-77
2023/10/05 11:18:30;;;;;;;5.25;2.85;;;16.20;99.90;;;;;;4977312;28;20046;-78
2023/10/05 11:21:06;;;;;;;10.50;1.67;;;16.10;99.90;;;;;;4971755;28;20060;-78
2023/10/05 11:23:45;;;;;;;5.20;1.83;;;16.10;99.90;;;;;;4977017;28;20313;-76
2023/10/05 11:26:18;;;;;;;7.60;2.13;;;16.10;99.90;;;;;;4972345;28;20062;-77
2023/10/05 11:28:51;;;;;;;12.02;2.40;;;16.00;99.90;;;;;;4954732;28;20042;-77
2023/10/05 11:31:26;;;;;;;5.13;2.15;;;16.00;99.90;;;;;;4962656;28;20046;-76
2023/10/05 11:34:00;;;;;;;6.57;1.92;;;15.90;99.90;;;;;;4979382;28;20044;-76
2023/10/05 11:36:33;;;;;;;8.60;1.67;;;15.90;99.90;;;;;;4976320;28;20476;-76
2023/10/05 11:39:00;;;;;;;6.57;1.75;;;15.80;99.90;;;;;;4961787;28;20069;-77
2023/10/05 11:41:28;;;;;;;6.22;1.95;;;15.80;99.90;;;;;;4971886;28;20513;-76
2023/10/05 11:43:55;;;;;;;7.88;2.33;;;15.80;99.90;;;;;;4967213;28;20043;-76
2023/10/05 11:46:26;;;;;;;5.65;1.75;;;15.70;99.90;;;;;;4977411;28;20089;-77
2023/10/05 11:48:55;;;;;;;3.97;2.42;;;15.70;99.90;;;;;;4982167;28;20078;-77
2023/10/05 11:51:26;;;;;;;6.10;1.50;;;15.70;99.90;;;;;;4980254;28;20544;-77
2023/10/05 11:53:55;;;;;;;12.52;2.38;;;15.70;99.90;;;;;;4977321;28;20045;-75
2023/10/05 11:56:21;;;;;;;9.50;2.53;;;15.70;99.90;;;;;;4967010;28;20039;-76
2023/10/05 11:58:47;;;;;;;4.25;1.65;;;15.70;99.90;;;;;;4978990;28;20485;-78
2023/10/05 12:01:18;;;;;;;7.80;2.28;;;15.70;99.90;;;;;;4969640;28;20242;-77
2023/10/05 12:03:47;;;;;;;3.20;1.93;;;15.80;99.90;;;;;;4959092;28;20077;-75
2023/10/05 12:06:15;;;;;;;6.40;2.13;;;15.80;99.90;;;;;;4983682;28;20138;-75
2023/10/05 12:08:41;;;;;;;8.18;2.15;;;15.80;99.90;;;;;;4968856;28;20049;-76
2023/10/05 12:11:10;;;;;;;11.13;2.28;;;15.90;99.90;;;;;;4963149;28;20519;-75
2023/10/05 12:13:36;;;;;;;8.45;2.85;;;16.00;99.90;;;;;;4963846;28;20042;-75
2023/10/05 12:16:11;;;;;;;5.38;2.08;;;16.00;99.90;;;;;;4971296;28;20045;-75
2023/10/05 12:18:37;;;;;;;6.38;1.45;;;16.10;99.90;;;;;;4972993;28;20497;-75
2023/10/05 12:21:03;;;;;;;10.82;2.17;;;16.10;99.90;;;;;;4972118;28;20045;-74
2023/10/05 12:23:28;;;;;;;5.10;1.63;;;16.10;99.90;;;;;;4994798;28;20073;-74
2023/10/05 12:25:54;;;;;;;3.00;1.38;;;16.20;99.90;;;;;;4980692;28;20043;-73
2023/10/05 12:28:23;;;;;;;6.70;1.92;;;16.20;99.90;;;;;;4990689;28;20034;-75
2023/10/05 12:30:49;;;;;;;5.95;1.70;;;16.20;99.90;;;;;;4997425;28;20503;-74
2023/10/05 12:33:15;;;;;;;5.13;2.25;;;16.20;99.90;;;;;;4966557;28;20053;-74
2023/10/05 12:35:43;;;;;;;5.97;1.88;;;16.20;99.90;;;;;;4964839;28;20046;-75
2023/10/05 12:38:10;;;;;;;6.57;1.65;;;16.20;99.90;;;;;;4979872;28;20551;-76
2023/10/05 12:40:41;;;;;;;4.72;1.60;;;16.30;99.90;;;;;;4982004;28;20061;-74
2023/10/05 12:43:09;;;;;;;5.78;1.58;;;16.30;99.90;;;;;;4969809;28;20050;-74
2023/10/05 12:45:35;;;;;;;5.47;1.45;;;16.30;99.90;;;;;;4965069;28;20371;-74
2023/10/05 12:48:04;;;;;;;4.47;1.50;;;16.30;99.90;;;;;;4962185;28;20047;-74
2023/10/05 12:50:29;;;;;;;7.13;1.65;;;16.30;99.90;;;;;;4963560;28;20057;-76
2023/10/05 12:52:56;;;;;;;10.55;2.75;;;16.30;99.90;;;;;;4963016;28;20050;-75
2023/10/05 12:55:23;;;;;;;6.35;2.38;;;16.30;99.90;;;;;;4961430;28;20053;-75
2023/10/05 12:57:53;;;;;;;3.13;1.40;;;16.30;99.90;;;;;;4960303;28;20050;-76
2023/10/05 13:00:31;;;;;;;4.45;1.42;;;16.40;99.90;;;;;;4979840;28;20134;-75
2023/10/05 13:03:00;;;;;;;2.10;1.40;;;16.40;99.90;;;;;;4980300;28;20329;-75
2023/10/05 13:05:31;;;;;;;1.58;1.48;;;16.40;99.90;;;;;;4965631;28;20070;-74
2023/10/05 13:08:01;;;;;;;5.18;1.95;;;16.40;99.90;;;;;;4962296;28;20608;-74
2023/10/05 13:10:32;;;;;;;4.53;1.60;;;16.40;99.90;;;;;;4978827;28;20046;-75
2023/10/05 13:13:01;;;;;;;2.70;1.10;;;16.40;99.90;;;;;;4978676;28;20060;-75
2023/10/05 13:15:33;;;;;;;7.55;1.80;;;16.40;99.90;;;;;;4966475;28;20050;-75
2023/10/05 13:18:15;;;;;;;5.88;1.75;;;16.40;99.90;;;;;;4978767;28;21071;-75
2023/10/05 13:20:42;;;;;;;3.65;1.25;;;16.50;99.90;;;;;;4961457;28;20043;-74
2023/10/05 13:23:11;;;;;;;5.53;2.28;;;16.50;99.90;;;;;;4963859;28;20054;-75
2023/10/05 13:25:36;;;;;;;8.32;1.75;;;16.50;99.90;;;;;;4962954;28;20052;-75
2023/10/05 13:28:03;;;;;;;2.13;1.33;;;16.50;99.90;;;;;;4944002;28;20428;-75
2023/10/05 13:30:40;;;;;;;8.88;1.40;;;16.50;99.90;;;;;;4967267;28;20049;-75
2023/10/05 13:33:13;;;;;;;5.35;1.40;;;16.50;99.90;;;;;;4967136;28;20177;-75